sensor_id;sensor_type;location;lat;lon;timestamp;P1;durP1;ratioP1;P2;durP2;ratioP2
26177;SDS011;13924;47.670;10.310;2023-01-24T00:11:50;60.2;;;21.9;;
26177;SDS011;13924;47.670;10.310;2023-01-24T00:17:00;56.8;;;25.1;;
26177;SDS011;13924;47.670;10.310;2023-01-24T00:22:14;51.5;;;20.5;;
26177;SDS011;13924;47.670;10.310;2023-01-24T00:32:50;47.1;;;18.4;;
26177;SDS011;13924;47.670;10.310;2023-01-24T00:48:47;40.5;;;16.6;;
26177;SDS011;13924;47.670;10.310;2023-01-24T00:53:57;49.0;;;23.9;;
26177;SDS011;13924;47.670;10.310;2023-01-24T00:59:13;38.2;;;17.2;;
26177;SDS011;13924;47.670;10.310;2023-01-24T01:04:28;43.0;;;17.6;;
26177;SDS011;13924;47.670;10.310;2023-01-24T01:09:39;45.3;;;17.5;;
26177;SDS011;13924;47.670;10.310;2023-01-24T01:25:38;53.1;;;19.3;;
26177;SDS011;13924;47.670;10.310;2023-01-24T01:30:51;47.2;;;19.4;;
26177;SDS011;13924;47.670;10.310;2023-01-24T01:41:21;49.0;;;19.4;;
26177;SDS011;13924;47.670;10.310;2023-01-24T01:46:33;49.1;;;18.7;;
26177;SDS011;13924;47.670;10.310;2023-01-24T01:51:43;47.5;;;19.7;;
26177;SDS011;13924;47.670;10.310;2023-01-24T01:56:55;45.4;;;18.6;;
26177;SDS011;13924;47.670;10.310;2023-01-24T02:07:28;37.8;;;17.3;;
26177;SDS011;13924;47.670;10.310;2023-01-24T02:12:40;46.0;;;18.5;;
26177;SDS011;13924;47.670;10.310;2023-01-24T02:17:48;48.4;;;25.1;;
26177;SDS011;13924;47.670;10.310;2023-01-24T02:23:03;45.1;;;19.6;;
26177;SDS011;13924;47.670;10.310;2023-01-24T02:33:32;42.4;;;19.4;;
26177;SDS011;13924;47.670;10.310;2023-01-24T02:44:04;44.3;;;18.7;;
26177;SDS011;13924;47.670;10.310;2023-01-24T02:49:17;47.5;;;24.6;;
26177;SDS011;13924;47.670;10.310;2023-01-24T02:54:29;41.6;;;19.5;;
26177;SDS011;13924;47.670;10.310;2023-01-24T03:15:45;40.0;;;18.1;;
26177;SDS011;13924;47.670;10.310;2023-01-24T03:31:52;48.8;;;20.5;;
26177;SDS011;13924;47.670;10.310;2023-01-24T03:37:00;51.4;;;26.0;;
26177;SDS011;13924;47.670;10.310;2023-01-24T03:42:15;41.3;;;20.4;;
26177;SDS011;13924;47.670;10.310;2023-01-24T03:47:25;34.2;;;16.5;;
26177;SDS011;13924;47.670;10.310;2023-01-24T03:52:37;36.4;;;16.7;;
26177;SDS011;13924;47.670;10.310;2023-01-24T03:57:49;42.2;;;24.1;;
26177;SDS011;13924;47.670;10.310;2023-01-24T04:03:05;36.7;;;18.4;;
26177;SDS011;13924;47.670;10.310;2023-01-24T04:08:21;42.3;;;17.5;;
26177;SDS011;13924;47.670;10.310;2023-01-24T04:13:32;34.7;;;18.1;;
26177;SDS011;13924;47.670;10.310;2023-01-24T04:24:14;35.4;;;16.6;;
26177;SDS011;13924;47.670;10.310;2023-01-24T04:29:23;35.7;;;17.8;;
26177;SDS011;13924;47.670;10.310;2023-01-24T04:34:34;34.3;;;16.6;;
26177;SDS011;13924;47.670;10.310;2023-01-24T04:39:45;35.4;;;16.7;;
26177;SDS011;13924;47.670;10.310;2023-01-24T04:44:56;35.6;;;16.4;;
26177;SDS011;13924;47.670;10.310;2023-01-24T04:50:06;36.5;;;21.6;;
26177;SDS011;13924;47.670;10.310;2023-01-24T04:55:16;33.4;;;16.7;;
26177;SDS011;13924;47.670;10.310;2023-01-24T05:11:11;36.2;;;17.1;;
26177;SDS011;13924;47.670;10.310;2023-01-24T05:32:27;35.5;;;17.7;;
26177;SDS011;13924;47.670;10.310;2023-01-24T05:37:45;43.0;;;18.6;;
26177;SDS011;13924;47.670;10.310;2023-01-24T05:42:57;42.6;;;19.4;;
26177;SDS011;13924;47.670;10.310;2023-01-24T05:48:08;43.7;;;19.2;;
26177;SDS011;13924;47.670;10.310;2023-01-24T05:53:20;37.3;;;18.0;;
26177;SDS011;13924;47.670;10.310;2023-01-24T05:58:32;40.6;;;18.6;;
26177;SDS011;13924;47.670;10.310;2023-01-24T06:03:41;39.7;;;18.6;;
26177;SDS011;13924;47.670;10.310;2023-01-24T06:14:19;50.6;;;21.3;;
26177;SDS011;13924;47.670;10.310;2023-01-24T06:19:34;38.8;;;18.2;;
26177;SDS011;13924;47.670;10.310;2023-01-24T06:24:46;46.0;;;19.3;;
26177;SDS011;13924;47.670;10.310;2023-01-24T06:29:57;42.6;;;19.8;;
26177;SDS011;13924;47.670;10.310;2023-01-24T06:46:05;37.8;;;18.7;;
26177;SDS011;13924;47.670;10.310;2023-01-24T06:51:18;40.1;;;17.6;;
26177;SDS011;13924;47.670;10.310;2023-01-24T06:56:30;33.6;;;16.7;;
26177;SDS011;13924;47.670;10.310;2023-01-24T07:01:42;38.3;;;17.0;;
26177;SDS011;13924;47.670;10.310;2023-01-24T07:06:56;39.0;;;23.1;;
26177;SDS011;13924;47.670;10.310;2023-01-24T07:12:10;31.8;;;16.8;;
26177;SDS011;13924;47.670;10.310;2023-01-24T07:17:29;36.1;;;17.4;;
26177;SDS011;13924;47.670;10.310;2023-01-24T07:22:43;30.7;;;16.1;;
26177;SDS011;13924;47.670;10.310;2023-01-24T07:33:15;30.2;;;14.9;;
26177;SDS011;13924;47.670;10.310;2023-01-24T07:38:32;35.5;;;15.7;;
26177;SDS011;13924;47.670;10.310;2023-01-24T07:43:44;30.3;;;15.2;;
26177;SDS011;13924;47.670;10.310;2023-01-24T07:48:59;35.3;;;15.7;;
26177;SDS011;13924;47.670;10.310;2023-01-24T07:54:12;35.8;;;16.6;;
26177;SDS011;13924;47.670;10.310;2023-01-24T07:59:28;29.8;;;15.9;;
26177;SDS011;13924;47.670;10.310;2023-01-24T08:15:23;26.9;;;14.4;;
26177;SDS011;13924;47.670;10.310;2023-01-24T08:20:38;31.9;;;15.0;;
26177;SDS011;13924;47.670;10.310;2023-01-24T08:25:56;26.4;;;14.2;;
26177;SDS011;13924;47.670;10.310;2023-01-24T08:31:04;28.3;;;19.2;;
26177;SDS011;13924;47.670;10.310;2023-01-24T08:36:19;26.0;;;15.5;;
26177;SDS011;13924;47.670;10.310;2023-01-24T08:52:15;28.5;;;15.8;;
26177;SDS011;13924;47.670;10.310;2023-01-24T09:02:46;27.9;;;14.6;;
26177;SDS011;13924;47.670;10.310;2023-01-24T09:24:10;26.5;;;14.7;;
26177;SDS011;13924;47.670;10.310;2023-01-24T09:29:31;30.3;;;15.0;;
26177;SDS011;13924;47.670;10.310;2023-01-24T09:34:39;29.3;;;19.4;;
26177;SDS011;13924;47.670;10.310;2023-01-24T09:39:51;24.3;;;14.5;;
26177;SDS011;13924;47.670;10.310;2023-01-24T09:50:29;28.2;;;15.2;;
26177;SDS011;13924;47.670;10.310;2023-01-24T09:55:49;30.7;;;19.9;;
26177;SDS011;13924;47.670;10.310;2023-01-24T10:00:54;26.5;;;15.3;;
26177;SDS011;13924;47.670;10.310;2023-01-24T10:06:07;30.5;;;16.3;;
26177;SDS011;13924;47.670;10.310;2023-01-24T10:11:21;30.3;;;15.3;;
26177;SDS011;13924;47.670;10.310;2023-01-24T10:16:42;25.8;;;14.3;;
26177;SDS011;13924;47.670;10.310;2023-01-24T10:32:36;29.0;;;15.6;;
26177;SDS011;13924;47.670;10.310;2023-01-24T10:37:48;29.0;;;19.0;;
26177;SDS011;13924;47.670;10.310;2023-01-24T10:48:24;27.2;;;14.5;;
26177;SDS011;13924;47.670;10.310;2023-01-24T10:53:31;28.1;;;14.8;;
26177;SDS011;13924;47.670;10.310;2023-01-24T11:04:19;24.3;;;13.5;;
26177;SDS011;13924;47.670;10.310;2023-01-24T11:09:27;30.9;;;15.2;;
26177;SDS011;13924;47.670;10.310;2023-01-24T11:14:35;23.7;;;13.9;;
26177;SDS011;13924;47.670;10.310;2023-01-24T11:36:01;34.4;;;16.4;;
26177;SDS011;13924;47.670;10.310;2023-01-24T11:41:09;26.7;;;13.9;;
26177;SDS011;13924;47.670;10.310;2023-01-24T11:46:20;33.1;;;15.4;;
26177;SDS011;13924;47.670;10.310;2023-01-24T11:51:36;30.0;;;19.7;;
26177;SDS011;13924;47.670;10.310;2023-01-24T12:02:06;26.8;;;14.9;;
26177;SDS011;13924;47.670;10.310;2023-01-24T12:07:14;26.7;;;14.7;;
26177;SDS011;13924;47.670;10.310;2023-01-24T12:12:24;31.6;;;15.9;;
26177;SDS011;13924;47.670;10.310;2023-01-24T12:17:45;26.2;;;14.9;;
26177;SDS011;13924;47.670;10.310;2023-01-24T12:28:12;26.9;;;14.9;;
26177;SDS011;13924;47.670;10.310;2023-01-24T12:38:45;23.6;;;13.7;;
26177;SDS011;13924;47.670;10.310;2023-01-24T12:44:02;28.9;;;15.3;;
26177;SDS011;13924;47.670;10.310;2023-01-24T12:49:14;32.0;;;15.8;;
26177;SDS011;13924;47.670;10.310;2023-01-24T12:54:28;39.6;;;17.3;;
26177;SDS011;13924;47.670;10.310;2023-01-24T12:59:38;25.1;;;13.8;;
26177;SDS011;13924;47.670;10.310;2023-01-24T13:04:53;33.0;;;15.5;;
26177;SDS011;13924;47.670;10.310;2023-01-24T13:10:04;32.5;;;15.6;;
26177;SDS011;13924;47.670;10.310;2023-01-24T13:26:03;32.5;;;15.7;;
26177;SDS011;13924;47.670;10.310;2023-01-24T13:31:10;38.0;;;17.3;;
26177;SDS011;13924;47.670;10.310;2023-01-24T13:36:25;32.1;;;16.1;;
26177;SDS011;13924;47.670;10.310;2023-01-24T13:41:36;31.8;;;15.9;;
26177;SDS011;13924;47.670;10.310;2023-01-24T13:53:14;39.1;;;17.3;;
26177;SDS011;13924;47.670;10.310;2023-01-24T13:57:21;30.4;;;16.4;;
26177;SDS011;13924;47.670;10.310;2023-01-24T14:07:53;35.4;;;16.9;;
26177;SDS011;13924;47.670;10.310;2023-01-24T14:18:43;33.2;;;17.3;;
26177;SDS011;13924;47.670;10.310;2023-01-24T14:29:00;29.4;;;16.3;;
26177;SDS011;13924;47.670;10.310;2023-01-24T14:34:15;32.6;;;21.7;;
26177;SDS011;13924;47.670;10.310;2023-01-24T14:39:26;27.9;;;16.6;;
26177;SDS011;13924;47.670;10.310;2023-01-24T14:44:36;30.3;;;21.2;;
26177;SDS011;13924;47.670;10.310;2023-01-24T14:49:51;29.1;;;17.2;;
26177;SDS011;13924;47.670;10.310;2023-01-24T15:00:16;30.0;;;17.6;;
26177;SDS011;13924;47.670;10.310;2023-01-24T15:05:24;32.5;;;17.5;;
26177;SDS011;13924;47.670;10.310;2023-01-24T15:10:36;35.5;;;19.0;;
26177;SDS011;13924;47.670;10.310;2023-01-24T15:15:47;35.1;;;18.7;;
26177;SDS011;13924;47.670;10.310;2023-01-24T15:20:58;34.6;;;20.0;;
26177;SDS011;13924;47.670;10.310;2023-01-24T15:26:43;35.4;;;19.9;;
26177;SDS011;13924;47.670;10.310;2023-01-24T15:31:22;37.5;;;18.7;;
26177;SDS011;13924;47.670;10.310;2023-01-24T15:36:33;37.8;;;20.1;;
26177;SDS011;13924;47.670;10.310;2023-01-24T15:41:45;36.5;;;18.7;;
26177;SDS011;13924;47.670;10.310;2023-01-24T15:46:57;39.7;;;19.3;;
26177;SDS011;13924;47.670;10.310;2023-01-24T15:57:20;62.8;;;29.7;;
26177;SDS011;13924;47.670;10.310;2023-01-24T16:02:34;47.6;;;22.3;;
26177;SDS011;13924;47.670;10.310;2023-01-24T16:07:46;48.7;;;22.2;;
26177;SDS011;13924;47.670;10.310;2023-01-24T16:12:57;51.5;;;22.5;;
26177;SDS011;13924;47.670;10.310;2023-01-24T16:18:09;48.1;;;23.1;;
26177;SDS011;13924;47.670;10.310;2023-01-24T16:28:42;57.4;;;23.8;;
26177;SDS011;13924;47.670;10.310;2023-01-24T16:39:16;56.3;;;24.5;;
26177;SDS011;13924;47.670;10.310;2023-01-24T16:49:51;62.4;;;24.8;;
26177;SDS011;13924;47.670;10.310;2023-01-24T17:05:43;63.2;;;25.4;;
26177;SDS011;13924;47.670;10.310;2023-01-24T17:11:03;51.9;;;22.3;;
26177;SDS011;13924;47.670;10.310;2023-01-24T17:26:51;57.0;;;23.7;;
26177;SDS011;13924;47.670;10.310;2023-01-24T17:42:47;50.8;;;21.5;;
26177;SDS011;13924;47.670;10.310;2023-01-24T17:53:20;55.5;;;22.5;;
26177;SDS011;13924;47.670;10.310;2023-01-24T18:14:45;53.0;;;23.8;;
26177;SDS011;13924;47.670;10.310;2023-01-24T18:30:39;47.1;;;20.4;;
26177;SDS011;13924;47.670;10.310;2023-01-24T18:35:52;49.0;;;20.7;;
26177;SDS011;13924;47.670;10.310;2023-01-24T18:41:07;43.6;;;19.6;;
26177;SDS011;13924;47.670;10.310;2023-01-24T18:46:19;47.3;;;21.0;;
26177;SDS011;13924;47.670;10.310;2023-01-24T18:51:35;55.8;;;21.0;;
26177;SDS011;13924;47.670;10.310;2023-01-24T18:56:51;48.5;;;20.2;;
26177;SDS011;13924;47.670;10.310;2023-01-24T19:02:05;48.0;;;25.9;;
26177;SDS011;13924;47.670;10.310;2023-01-24T19:07:15;48.9;;;20.4;;
26177;SDS011;13924;47.670;10.310;2023-01-24T19:17:49;56.1;;;22.3;;
26177;SDS011;13924;47.670;10.310;2023-01-24T19:23:02;57.6;;;29.7;;
26177;SDS011;13924;47.670;10.310;2023-01-24T19:28:17;52.1;;;23.0;;
26177;SDS011;13924;47.670;10.310;2023-01-24T19:38:51;49.0;;;22.0;;
26177;SDS011;13924;47.670;10.310;2023-01-24T19:44:05;58.2;;;23.4;;
26177;SDS011;13924;47.670;10.310;2023-01-24T19:54:38;53.7;;;22.4;;
26177;SDS011;13924;47.670;10.310;2023-01-24T20:15:53;52.5;;;23.1;;
26177;SDS011;13924;47.670;10.310;2023-01-24T20:37:07;58.0;;;23.8;;
26177;SDS011;13924;47.670;10.310;2023-01-24T20:42:22;63.9;;;33.3;;
26177;SDS011;13924;47.670;10.310;2023-01-24T20:47:27;58.7;;;25.5;;
26177;SDS011;13924;47.670;10.310;2023-01-24T21:08:42;57.1;;;23.7;;
26177;SDS011;13924;47.670;10.310;2023-01-24T21:14:00;50.8;;;23.2;;
26177;SDS011;13924;47.670;10.310;2023-01-24T21:19:10;54.6;;;30.3;;
26177;SDS011;13924;47.670;10.310;2023-01-24T21:29:39;55.3;;;24.4;;
26177;SDS011;13924;47.670;10.310;2023-01-24T21:34:55;47.6;;;23.1;;
26177;SDS011;13924;47.670;10.310;2023-01-24T21:40:14;56.5;;;31.0;;
26177;SDS011;13924;47.670;10.310;2023-01-24T21:45:28;57.7;;;24.6;;
26177;SDS011;13924;47.670;10.310;2023-01-24T21:50:39;53.0;;;23.1;;
26177;SDS011;13924;47.670;10.310;2023-01-24T21:55:49;54.0;;;22.3;;
26177;SDS011;13924;47.670;10.310;2023-01-24T22:06:22;51.9;;;21.6;;
26177;SDS011;13924;47.670;10.310;2023-01-24T22:11:32;47.1;;;19.1;;
26177;SDS011;13924;47.670;10.310;2023-01-24T22:16:47;57.0;;;23.3;;
26177;SDS011;13924;47.670;10.310;2023-01-24T22:22:02;55.7;;;22.1;;
26177;SDS011;13924;47.670;10.310;2023-01-24T22:27:12;55.2;;;21.7;;
26177;SDS011;13924;47.670;10.310;2023-01-24T22:48:26;59.6;;;23.0;;
26177;SDS011;13924;47.670;10.310;2023-01-24T22:53:41;67.7;;;24.8;;
26177;SDS011;13924;47.670;10.310;2023-01-24T23:09:36;69.0;;;25.2;;
26177;SDS011;13924;47.670;10.310;2023-01-24T23:14:47;65.0;;;24.6;;
26177;SDS011;13924;47.670;10.310;2023-01-24T23:20:01;74.7;;;34.2;;
26177;SDS011;13924;47.670;10.310;2023-01-24T23:30:39;65.9;;;25.4;;
26177;SDS011;13924;47.670;10.310;2023-01-24T23:35:44;68.5;;;26.0;;
26177;SDS011;13924;47.670;10.310;2023-01-24T23:40:53;76.3;;;35.0;;
26177;SDS011;13924;47.670;10.310;2023-01-24T23:46:08;67.2;;;26.4;;
26177;SDS011;13924;47.670;10.310;2023-01-24T23:56:45;60.5;;;23.7;;
